Time;durP1;ratioP1;P1;durP2;ratioP2;P2;SDS_P1;SDS_P2;PMS_P1;PMS_P2;Temp;Humidity;BMP_temperature;BMP_pressure;BME280_temperature;BME280_humidity;BME280_pressure;Samples;Min_cycle;Max_cycle;Signal;HPM_P1;HPM_P2
2021/09/04 00:01:06;;;;;;;7.40;4.63;;;;;;;13.31;100.00;94929.91;10285885;28;20035;-71
2021/09/04 00:06:06;;;;;;;8.38;4.53;;;;;;;13.16;100.00;94940.84;10285579;28;20658;-71
2021/09/04 00:11:06;;;;;;;8.10;4.87;;;;;;;12.97;100.00;94941.53;10292063;28;20031;-71
2021/09/04 00:16:07;;;;;;;12.27;5.30;;;;;;;12.81;100.00;94954.34;10293540;28;20035;-71
2021/09/04 00:21:07;;;;;;;10.27;5.30;;;;;;;12.81;100.00;94948.16;10293131;28;20649;-71
2021/09/04 00:26:08;;;;;;;11.20;5.30;;;;;;;12.80;100.00;94943.84;10292939;28;20407;-71
2021/09/04 00:31:09;;;;;;;8.13;5.03;;;;;;;12.54;100.00;94954.81;10291507;28;20378;-71
2021/09/04 00:36:09;;;;;;;8.60;5.38;;;;;;;12.49;100.00;94960.25;10291781;28;20779;-71
2021/09/04 00:41:09;;;;;;;10.03;5.97;;;;;;;12.27;100.00;94963.34;10291634;28;20042;-71
2021/09/04 00:46:10;;;;;;;10.37;6.13;;;;;;;12.40;100.00;94951.94;10292354;28;20054;-71
2021/09/04 00:51:11;;;;;;;8.48;5.13;;;;;;;12.32;100.00;94944.44;10292662;28;20274;-71
2021/09/04 00:56:13;;;;;;;11.93;5.40;;;;;;;12.37;100.00;94940.91;10291990;28;20395;-71
2021/09/04 01:01:13;;;;;;;7.93;4.72;;;;;;;12.30;100.00;94939.31;10292087;28;20037;-71
2021/09/04 01:06:15;;;;;;;11.90;6.00;;;;;;;12.17;100.00;94931.06;10292094;28;20509;-71
2021/09/04 01:11:16;;;;;;;6.93;5.35;;;;;;;12.15;100.00;94925.94;10290288;28;20085;-71
2021/09/04 01:16:17;;;;;;;9.77;5.90;;;;;;;12.17;100.00;94917.56;10291604;28;20038;-71
2021/09/04 01:21:17;;;;;;;10.30;5.80;;;;;;;12.14;100.00;94916.28;10290835;28;20034;-71
2021/09/04 01:26:17;;;;;;;12.03;5.83;;;;;;;12.09;100.00;94909.00;10289737;28;20027;-71
2021/09/04 01:31:18;;;;;;;9.27;6.22;;;;;;;12.13;100.00;94903.88;10290231;28;20023;-71
2021/09/04 01:36:34;;;;;;;8.77;5.10;;;;;;;12.22;100.00;94904.09;10290223;28;20478;-71
2021/09/04 01:41:35;;;;;;;8.70;5.30;;;;;;;12.16;100.00;94905.22;10290689;28;20314;-71
2021/09/04 01:46:35;;;;;;;8.65;5.75;;;;;;;12.20;100.00;94898.97;10290577;28;20058;-71
2021/09/04 01:51:36;;;;;;;11.23;5.60;;;;;;;12.16;100.00;94903.31;10289260;28;20110;-71
2021/09/04 01:56:36;;;;;;;10.02;5.28;;;;;;;12.23;100.00;94900.31;10288856;28;20042;-71
2021/09/04 02:01:36;;;;;;;12.63;5.90;;;;;;;12.18;100.00;94901.16;10288722;28;20034;-71
2021/09/04 02:06:37;;;;;;;13.23;5.38;;;;;;;12.25;100.00;94898.94;10289817;28;20062;-71
2021/09/04 02:11:37;;;;;;;10.43;6.70;;;;;;;12.17;100.00;94896.03;10289597;28;20034;-71
2021/09/04 02:16:37;;;;;;;9.07;5.23;;;;;;;12.28;100.00;94892.19;10271727;28;20031;-71
2021/09/04 02:21:38;;;;;;;12.03;6.00;;;;;;;12.12;100.00;94892.28;10289317;28;20027;-70
2021/09/04 02:26:38;;;;;;;9.38;5.85;;;;;;;12.05;100.00;94886.41;10288935;28;20019;-71
2021/09/04 02:31:39;;;;;;;11.90;6.50;;;;;;;11.99;100.00;94879.44;10288923;28;20027;-72
2021/09/04 02:36:39;;;;;;;9.00;7.13;;;;;;;11.89;100.00;94877.56;10288280;28;20037;-71
2021/09/04 02:41:40;;;;;;;8.88;6.72;;;;;;;11.48;100.00;94871.56;10288357;28;20133;-71
2021/09/04 02:46:40;;;;;;;9.25;6.32;;;;;;;11.20;100.00;94876.50;10288200;28;20105;-71
2021/09/04 02:51:41;;;;;;;11.27;6.83;;;;;;;11.01;100.00;94879.78;10287722;28;20039;-71
2021/09/04 02:56:42;;;;;;;17.00;7.63;;;;;;;10.87;100.00;94871.47;10286566;28;20035;-71
2021/09/04 03:01:42;;;;;;;11.87;7.20;;;;;;;10.77;100.00;94866.91;10287569;28;20062;-71
2021/09/04 03:06:43;;;;;;;10.93;7.20;;;;;;;10.80;100.00;94873.63;10287357;28;20042;-71
2021/09/04 03:11:43;;;;;;;9.63;7.03;;;;;;;10.73;100.00;94876.59;10287346;28;20049;-71
2021/09/04 03:16:43;;;;;;;10.30;6.70;;;;;;;10.71;100.00;94865.28;10287042;28;20297;-71
2021/09/04 03:21:44;;;;;;;13.13;8.00;;;;;;;10.66;100.00;94883.31;10286659;28;20495;-71
2021/09/04 03:26:44;;;;;;;11.63;7.85;;;;;;;10.60;100.00;94885.19;10286719;28;20369;-71
2021/09/04 03:31:44;;;;;;;13.50;7.97;;;;;;;10.71;100.00;94880.63;10286656;28;20421;-71
2021/09/04 03:36:46;;;;;;;14.23;7.90;;;;;;;10.67;100.00;94884.94;10286558;28;20031;-71
2021/09/04 03:41:46;;;;;;;18.13;9.00;;;;;;;10.75;100.00;94893.25;10286054;28;20272;-71
2021/09/04 03:46:47;;;;;;;11.83;7.43;;;;;;;10.83;100.00;94886.53;10285992;28;20031;-71
2021/09/04 03:51:47;;;;;;;13.27;7.93;;;;;;;10.87;100.00;94897.53;10285993;28;20039;-71
2021/09/04 03:56:47;;;;;;;13.47;7.60;;;;;;;10.91;100.00;94890.53;10285698;28;20037;-72
2021/09/04 04:01:48;;;;;;;10.65;7.10;;;;;;;10.84;100.00;94884.63;10285952;28;20277;-72
2021/09/04 04:06:49;;;;;;;14.70;6.85;;;;;;;10.94;100.00;94885.44;10286039;28;20051;-72
2021/09/04 04:11:49;;;;;;;13.33;7.00;;;;;;;10.70;100.00;94869.06;10268357;28;20396;-72
2021/09/04 04:16:49;;;;;;;12.17;7.63;;;;;;;10.65;100.00;94877.13;10285678;28;20527;-72
2021/09/04 04:21:50;;;;;;;13.03;7.60;;;;;;;10.76;100.00;94877.94;10285478;28;20466;-72
2021/09/04 04:26:50;;;;;;;16.57;7.30;;;;;;;10.72;100.00;94888.41;10267644;28;20434;-72
2021/09/04 04:31:51;;;;;;;13.57;7.27;;;;;;;10.90;100.00;94883.56;10285550;28;20495;-72
2021/09/04 04:36:51;;;;;;;10.70;6.87;;;;;;;11.07;100.00;94894.03;10285026;28;20473;-72
2021/09/04 04:41:51;;;;;;;11.63;7.30;;;;;;;11.13;100.00;94902.88;10285146;28;20055;-72
2021/09/04 04:46:52;;;;;;;12.27;7.33;;;;;;;11.23;100.00;94908.22;10285012;28;20061;-72
2021/09/04 04:51:52;;;;;;;9.70;6.00;;;;;;;11.40;100.00;94911.44;10285104;28;20366;-72
2021/09/04 04:56:53;;;;;;;13.77;7.43;;;;;;;11.57;100.00;94902.22;10288757;28;20042;-72
2021/09/04 05:01:53;;;;;;;10.93;6.43;;;;;;;11.87;100.00;94914.75;10292043;28;20285;-72
2021/09/04 05:06:53;;;;;;;11.20;6.37;;;;;;;12.12;100.00;94913.81;10292012;28;20146;-72
2021/09/04 05:11:54;;;;;;;13.30;7.40;;;;;;;12.42;100.00;94909.34;10292014;28;20093;-72
2021/09/04 05:16:54;;;;;;;12.77;6.30;;;;;;;12.79;100.00;94907.19;10291121;28;20057;-72
2021/09/04 05:21:54;;;;;;;10.47;6.37;;;;;;;12.79;100.00;94905.28;10290933;28;20402;-72
2021/09/04 05:26:55;;;;;;;10.53;6.93;;;;;;;13.02;100.00;94902.94;10291327;28;20033;-72
2021/09/04 05:31:55;;;;;;;9.70;6.53;;;;;;;13.55;100.00;94909.44;10290883;28;20286;-71
2021/09/04 05:36:56;;;;;;;9.95;6.00;;;;;;;14.14;100.00;94910.06;10291917;28;20034;-71
2021/09/04 05:41:56;;;;;;;9.32;5.93;;;;;;;14.94;100.00;94912.97;10292093;28;20483;-72
2021/09/04 05:46:57;;;;;;;9.93;5.90;;;;;;;15.85;100.00;94901.56;10291137;28;20069;-71
2021/09/04 05:51:57;;;;;;;17.05;6.45;;;;;;;16.56;100.00;94900.28;10290694;28;20348;-72
2021/09/04 05:56:57;;;;;;;10.53;6.20;;;;;;;17.51;100.00;94904.78;10287885;28;20027;-72
2021/09/04 06:01:58;;;;;;;14.37;4.97;;;;;;;18.08;100.00;94908.66;10290205;28;20514;-72
2021/09/04 06:06:58;;;;;;;8.32;4.78;;;;;;;18.42;100.00;94894.31;10290089;28;20039;-72
2021/09/04 06:11:59;;;;;;;10.87;5.73;;;;;;;18.90;100.00;94894.50;10290343;28;20126;-72
2021/09/04 06:16:59;;;;;;;16.13;6.30;;;;;;;19.63;91.20;94902.66;10290471;28;20105;-72
2021/09/04 06:21:59;;;;;;;29.57;6.10;;;;;;;20.23;88.74;94901.91;10289752;28;20050;-72
2021/09/04 06:27:00;;;;;;;11.00;5.73;;;;;;;19.95;89.03;94900.47;10290207;28;20030;-72
2021/09/04 06:32:01;;;;;;;11.03;6.13;;;;;;;19.44;90.58;94894.84;10289757;28;20777;-72
2021/09/04 06:37:01;;;;;;;9.93;6.30;;;;;;;19.14;97.58;94888.50;10289628;28;20830;-72
2021/09/04 06:42:02;;;;;;;14.02;5.78;;;;;;;19.39;98.06;94883.31;10289487;28;20042;-72
2021/09/04 06:47:02;;;;;;;12.10;6.47;;;;;;;19.81;93.88;94880.78;10289403;28;20034;-72
2021/09/04 06:52:03;;;;;;;9.90;5.82;;;;;;;20.71;85.23;94892.44;10289386;28;20034;-72
2021/09/04 06:57:04;;;;;;;11.75;6.10;;;;;;;20.96;85.02;94896.06;10288372;28;20089;-72
2021/09/04 07:02:05;;;;;;;16.67;6.32;;;;;;;21.04;80.84;94893.59;10288299;28;20041;-72
2021/09/04 07:07:06;;;;;;;14.05;7.18;;;;;;;20.86;86.17;94891.03;10288522;28;20060;-72
2021/09/04 07:12:06;;;;;;;13.90;6.38;;;;;;;21.70;79.71;94878.25;10288185;28;20046;-72
2021/09/04 07:17:07;;;;;;;9.32;5.40;;;;;;;23.27;60.84;94875.91;10286389;28;20138;-72
2021/09/04 07:22:08;;;;;;;8.63;5.23;;;;;;;24.44;54.18;94863.84;10288152;28;20125;-72
2021/09/04 07:27:08;;;;;;;10.77;5.07;;;;;;;26.31;45.52;94859.03;10287827;28;20085;-72
2021/09/04 07:32:09;;;;;;;8.43;4.85;;;;;;;28.18;41.11;94865.06;10288036;28;20030;-72
2021/09/04 07:37:09;;;;;;;7.43;4.60;;;;;;;28.45;38.92;94860.91;10287517;28;20040;-72
2021/09/04 07:42:09;;;;;;;9.13;4.60;;;;;;;30.05;36.00;94870.56;10287561;28;20031;-72
2021/09/04 07:47:10;;;;;;;9.80;4.80;;;;;;;30.09;35.63;94874.91;10287634;28;20054;-72
2021/09/04 07:52:10;;;;;;;5.13;3.70;;;;;;;31.59;33.54;94876.91;10287471;28;20035;-72
2021/09/04 07:57:11;;;;;;;14.15;4.57;;;;;;;32.00;32.17;94876.22;10287357;28;20031;-72
2021/09/04 08:02:11;;;;;;;13.87;5.83;;;;;;;32.24;31.75;94873.69;10287181;28;20031;-72
2021/09/04 08:07:12;;;;;;;7.53;4.63;;;;;;;32.08;31.90;94866.63;10287028;28;20430;-72
2021/09/04 08:12:12;;;;;;;7.97;4.20;;;;;;;33.35;30.73;94863.34;10287132;28;20038;-72
2021/09/04 08:17:12;;;;;;;7.93;3.73;;;;;;;34.06;28.98;94867.13;10286716;28;20030;-72
2021/09/04 08:22:13;;;;;;;7.50;4.03;;;;;;;32.41;30.49;94881.06;10287025;28;20022;-70
2021/09/04 08:27:13;;;;;;;11.47;4.20;;;;;;;31.85;32.05;94873.53;10286871;28;20030;-73
2021/09/04 08:32:13;;;;;;;8.50;4.00;;;;;;;30.25;33.73;94879.25;10292766;28;20509;-72
2021/09/04 08:37:14;;;;;;;8.57;3.77;;;;;;;31.92;31.18;94866.38;10294120;28;20034;-70
2021/09/04 08:42:14;;;;;;;7.43;3.50;;;;;;;32.25;31.57;94869.69;10293754;28;20444;-70
2021/09/04 08:47:18;;;;;;;10.37;3.93;;;;;;;33.09;30.13;94876.78;10293287;28;20550;-70
2021/09/04 08:52:19;;;;;;;4.47;2.78;;;;;;;33.64;29.49;94874.09;10276264;28;20282;-71
2021/09/04 08:57:19;;;;;;;5.40;3.30;;;;;;;30.45;31.50;94885.19;10293555;28;20031;-70
2021/09/04 09:02:26;;;;;;;5.10;3.33;;;;;;;27.95;35.61;94885.38;10292229;28;20274;-73
2021/09/04 09:07:46;;;;;;;9.15;3.65;;;;;;;29.64;35.15;94878.03;10293336;28;20055;-73
2021/09/04 09:12:48;;;;;;;6.30;3.33;;;;;;;31.19;32.27;94858.44;10275827;28;20057;-70
2021/09/04 09:18:03;;;;;;;10.25;4.50;;;;;;;30.85;34.56;94872.03;10292758;28;20026;-73
2021/09/04 09:23:08;;;;;;;6.47;3.45;;;;;;;31.67;31.58;94853.44;10291552;28;20113;-73
2021/09/04 09:28:11;;;;;;;6.88;3.30;;;;;;;30.00;33.62;94855.09;10292168;28;20031;-70
2021/09/04 09:33:17;;;;;;;6.55;3.20;;;;;;;28.42;35.75;94850.59;10292142;28;20530;-73
2021/09/04 09:38:20;;;;;;;6.10;2.75;;;;;;;28.40;35.24;94836.41;10302653;28;20038;-71
2021/09/04 09:43:33;;;;;;;5.93;3.55;;;;;;;28.62;34.84;94831.81;10291135;28;20483;-71
2021/09/04 09:48:35;;;;;;;4.25;3.47;;;;;;;30.73;32.89;94822.50;10297434;28;20482;-71
2021/09/04 09:53:36;;;;;;;5.32;2.95;;;;;;;30.32;31.06;94804.38;10291539;28;20037;-71
2021/09/04 09:58:38;;;;;;;5.47;2.60;;;;;;;30.82;30.86;94798.69;10291075;28;20705;-71
2021/09/04 10:03:39;;;;;;;5.03;3.00;;;;;;;33.31;28.80;94799.34;10290623;28;20541;-71
2021/09/04 10:08:40;;;;;;;5.53;3.53;;;;;;;35.97;26.33;94787.09;10290679;28;20128;-72
2021/09/04 10:13:41;;;;;;;7.85;2.90;;;;;;;37.23;24.45;94783.72;10290442;28;20043;-72
2021/09/04 10:18:42;;;;;;;5.32;2.58;;;;;;;34.60;26.47;94792.84;10290340;28;20446;-72
2021/09/04 10:23:50;;;;;;;9.15;2.85;;;;;;;36.48;23.50;94777.41;10290461;28;20410;-71
2021/09/04 10:29:12;;;;;;;6.35;2.70;;;;;;;38.35;23.50;94770.94;10289917;28;20035;-71
2021/09/04 10:34:17;;;;;;;8.50;3.33;;;;;;;36.35;23.41;94771.78;10290074;28;20465;-71
2021/09/04 10:39:17;;;;;;;6.67;2.80;;;;;;;36.94;25.12;94753.72;10289423;28;20116;-71
2021/09/04 10:44:23;;;;;;;5.43;3.00;;;;;;;37.94;23.34;94753.88;10289554;28;20085;-71
2021/09/04 10:49:43;;;;;;;7.80;3.20;;;;;;;36.00;25.56;94749.84;10289462;28;20018;-71
2021/09/04 10:55:01;;;;;;;7.47;2.80;;;;;;;37.26;22.36;94737.16;10287911;28;20079;-71
2021/09/04 11:00:16;;;;;;;8.30;2.70;;;;;;;37.16;22.22;94736.25;10288277;28;20034;-71
2021/09/04 11:05:26;;;;;;;5.32;2.85;;;;;;;38.62;21.86;94745.13;10288895;28;20058;-71
2021/09/04 11:10:27;;;;;;;3.40;2.35;;;;;;;38.03;23.11;94733.53;10287997;28;20055;-71
2021/09/04 11:15:27;;;;;;;3.90;2.80;;;;;;;35.94;24.62;94743.25;10288547;28;20030;-71
2021/09/04 11:20:28;;;;;;;4.20;3.13;;;;;;;34.21;24.80;94742.13;10288191;28;20412;-71
2021/09/04 11:25:29;;;;;;;7.15;3.03;;;;;;;32.02;28.90;94727.25;10287837;28;20037;-71
2021/09/04 11:30:29;;;;;;;7.72;3.40;;;;;;;29.85;31.96;94745.47;10287965;28;20114;-71
2021/09/04 11:35:29;;;;;;;4.93;3.40;;;;;;;29.12;33.37;94748.19;10287780;28;20033;-71
2021/09/04 11:40:33;;;;;;;6.37;3.37;;;;;;;28.47;34.40;94758.25;10287490;28;20031;-71
2021/09/04 11:45:34;;;;;;;9.77;4.18;;;;;;;27.99;33.81;94739.00;10287694;28;20113;-71
2021/09/04 11:50:35;;;;;;;15.43;3.85;;;;;;;27.77;34.24;94731.38;10287370;28;20058;-71
2021/09/04 11:55:36;;;;;;;9.50;4.18;;;;;;;27.16;33.95;94727.31;10287183;28;20097;-71
2021/09/04 12:00:38;;;;;;;6.43;4.22;;;;;;;26.23;39.58;94719.59;10286919;28;20478;-71
2021/09/04 12:05:46;;;;;;;5.07;3.75;;;;;;;26.51;38.04;94716.38;10291338;28;20475;-71
2021/09/04 12:10:46;;;;;;;9.52;4.05;;;;;;;26.63;37.54;94712.59;10295371;28;20047;-71
2021/09/04 12:15:54;;;;;;;9.65;4.40;;;;;;;26.74;38.25;94693.44;10295103;28;20479;-71
2021/09/04 12:20:55;;;;;;;12.88;4.03;;;;;;;26.57;40.39;94692.84;10294925;28;20039;-71
2021/09/04 12:26:06;;;;;;;7.13;3.72;;;;;;;25.79;38.16;94681.59;10295598;28;20089;-71
2021/09/04 12:31:10;;;;;;;11.43;5.05;;;;;;;25.29;39.36;94679.69;10294632;28;20031;-71
2021/09/04 12:36:10;;;;;;;6.97;4.20;;;;;;;25.24;39.86;94680.00;10294225;28;20027;-71
2021/09/04 12:41:13;;;;;;;6.33;3.63;;;;;;;25.31;38.09;94665.56;10294434;28;20030;-71
2021/09/04 12:46:34;;;;;;;9.80;4.00;;;;;;;24.87;38.76;94658.59;10294240;28;20088;-72
2021/09/04 12:51:35;;;;;;;7.07;4.13;;;;;;;24.55;39.14;94665.06;10293743;28;20106;-71
2021/09/04 12:56:41;;;;;;;10.20;3.65;;;;;;;24.47;38.79;94649.63;10293825;28;20113;-71
2021/09/04 13:01:41;;;;;;;9.68;4.82;;;;;;;24.43;40.01;94646.00;10293566;28;20031;-71
2021/09/04 13:06:41;;;;;;;6.87;3.50;;;;;;;24.33;42.67;94644.66;10293240;28;20565;-71
2021/09/04 13:11:42;;;;;;;20.00;5.93;;;;;;;24.47;42.23;94643.34;10293120;28;20293;-71
2021/09/04 13:16:42;;;;;;;7.37;4.00;;;;;;;24.34;41.94;94646.25;10291991;28;20097;-71
2021/09/04 13:21:45;;;;;;;5.83;4.30;;;;;;;24.50;39.57;94643.41;10292666;28;20045;-72
2021/09/04 13:26:45;;;;;;;8.38;4.15;;;;;;;24.51;39.66;94639.50;10292668;28;20387;-71
2021/09/04 13:31:47;;;;;;;5.00;3.75;;;;;;;24.44;40.56;94633.09;10291314;28;20035;-71
2021/09/04 13:36:48;;;;;;;5.57;4.43;;;;;;;24.48;39.45;94629.22;10292049;28;20034;-71
2021/09/04 13:41:48;;;;;;;7.25;3.85;;;;;;;24.35;39.66;94628.63;10292099;28;20027;-71
2021/09/04 13:46:49;;;;;;;5.47;3.83;;;;;;;24.28;39.96;94623.00;10292020;28;20823;-71
2021/09/04 13:51:49;;;;;;;5.40;3.97;;;;;;;24.21;40.72;94611.84;10290221;28;20027;-71
2021/09/04 13:56:49;;;;;;;5.60;3.90;;;;;;;24.13;40.00;94613.69;10291560;28;20141;-71
2021/09/04 14:01:50;;;;;;;12.70;4.20;;;;;;;24.00;41.37;94615.00;10291208;28;20041;-72
2021/09/04 14:06:50;;;;;;;6.73;4.87;;;;;;;24.05;42.82;94612.75;10291010;28;20412;-72
2021/09/04 14:11:51;;;;;;;10.33;4.57;;;;;;;24.23;44.36;94607.59;10291013;28;20357;-72
2021/09/04 14:16:51;;;;;;;5.88;4.50;;;;;;;24.20;41.38;94604.78;10290585;28;20027;-72
2021/09/04 14:21:52;;;;;;;9.57;5.00;;;;;;;24.21;43.52;94609.09;10290321;28;20041;-72
2021/09/04 14:26:52;;;;;;;10.25;4.03;;;;;;;24.11;42.32;94609.72;10289819;28;20069;-72
2021/09/04 14:31:53;;;;;;;5.57;3.97;;;;;;;24.10;43.65;94608.13;10290037;28;20093;-72
2021/09/04 14:36:53;;;;;;;5.90;3.97;;;;;;;24.00;43.01;94606.75;10290019;28;20044;-72
2021/09/04 14:41:53;;;;;;;8.30;3.90;;;;;;;23.66;43.88;94607.22;10289651;28;20053;-72
2021/09/04 14:46:54;;;;;;;6.93;3.90;;;;;;;23.64;42.49;94616.97;10289654;28;20030;-72
2021/09/04 14:51:54;;;;;;;8.23;4.30;;;;;;;23.63;41.51;94616.19;10289291;28;20030;-72
2021/09/04 14:56:54;;;;;;;9.23;4.03;;;;;;;23.51;41.89;94602.59;10288778;28;20336;-72
2021/09/04 15:01:55;;;;;;;5.93;4.10;;;;;;;23.47;45.26;94612.69;10289044;28;20027;-72
2021/09/04 15:06:55;;;;;;;5.87;3.90;;;;;;;23.42;46.04;94597.31;10288488;28;20495;-72
2021/09/04 15:11:55;;;;;;;10.40;4.57;;;;;;;23.08;47.59;94599.69;10288151;28;20285;-72
2021/09/04 15:16:56;;;;;;;9.27;4.90;;;;;;;23.15;47.83;94594.41;10288351;28;20266;-72
2021/09/04 15:21:56;;;;;;;7.65;4.45;;;;;;;23.12;48.64;94599.78;10288244;28;20030;-72
2021/09/04 15:26:57;;;;;;;6.57;4.60;;;;;;;22.78;48.06;94593.91;10287782;28;20518;-72
2021/09/04 15:31:57;;;;;;;9.90;5.23;;;;;;;22.78;47.16;94586.47;10286848;28;20023;-72
2021/09/04 15:36:57;;;;;;;6.87;4.27;;;;;;;22.79;47.04;94587.28;10287437;28;20034;-72
2021/09/04 15:41:58;;;;;;;8.77;5.10;;;;;;;22.85;45.57;94592.09;10287247;28;21205;-72
2021/09/04 15:47:00;;;;;;;5.83;4.20;;;;;;;22.83;43.23;94593.63;10285815;28;20121;-72
2021/09/04 15:52:01;;;;;;;8.43;3.85;;;;;;;22.83;47.02;94593.63;10287456;28;20391;-72
2021/09/04 15:57:01;;;;;;;9.18;4.45;;;;;;;22.74;47.58;94595.75;10287349;28;20027;-72
2021/09/04 16:02:02;;;;;;;7.30;4.47;;;;;;;22.70;46.43;94587.44;10287114;28;20056;-72
2021/09/04 16:07:02;;;;;;;7.43;4.40;;;;;;;22.65;47.23;94587.72;10286901;28;20055;-72
2021/09/04 16:12:03;;;;;;;7.43;4.65;;;;;;;22.57;48.63;94591.44;10287256;28;20031;-72
2021/09/04 16:17:03;;;;;;;7.88;3.88;;;;;;;22.50;49.62;94592.03;10286359;28;20037;-72
2021/09/04 16:22:04;;;;;;;11.83;4.53;;;;;;;22.32;50.39;94591.56;10286815;28;20030;-72
2021/09/04 16:27:04;;;;;;;7.23;4.47;;;;;;;22.25;48.74;94594.91;10286708;28;20482;-72
2021/09/04 16:32:05;;;;;;;11.63;4.25;;;;;;;22.15;50.53;94603.63;10286408;28;20475;-72
2021/09/04 16:37:05;;;;;;;6.93;3.70;;;;;;;22.01;52.93;94607.56;10286587;28;20023;-72
2021/09/04 16:42:06;;;;;;;12.87;4.37;;;;;;;21.81;55.46;94612.13;10286507;28;20030;-72
2021/09/04 16:47:07;;;;;;;9.93;4.72;;;;;;;21.75;58.79;94612.69;10286174;28;20023;-72
2021/09/04 16:52:08;;;;;;;6.57;4.22;;;;;;;21.55;59.69;94620.75;10290865;28;20118;-72
2021/09/04 16:57:08;;;;;;;9.38;4.68;;;;;;;21.37;62.40;94627.59;10293142;28;20031;-72
2021/09/04 17:02:08;;;;;;;10.47;4.80;;;;;;;21.26;64.16;94636.25;10292218;28;20136;-71
2021/09/04 17:07:09;;;;;;;11.23;4.83;;;;;;;21.10;64.91;94640.84;10291757;28;20078;-72
2021/09/04 17:12:09;;;;;;;9.07;4.63;;;;;;;21.03;66.87;94638.69;10292081;28;20054;-72
2021/09/04 17:17:09;;;;;;;12.23;4.63;;;;;;;20.81;69.62;94657.09;10291752;28;20297;-72
2021/09/04 17:22:10;;;;;;;12.10;4.83;;;;;;;20.72;69.20;94667.34;10291298;28;20383;-72
2021/09/04 17:27:10;;;;;;;11.67;4.97;;;;;;;20.64;70.11;94670.94;10273770;28;20353;-72
2021/09/04 17:32:11;;;;;;;16.43;5.33;;;;;;;20.60;71.71;94684.47;10291125;28;20038;-72
2021/09/04 17:37:11;;;;;;;6.93;4.40;;;;;;;20.36;83.53;94687.13;10290778;28;20773;-72
2021/09/04 17:42:11;;;;;;;9.07;5.07;;;;;;;20.17;84.50;94698.56;10290756;28;20457;-72
2021/09/04 17:47:12;;;;;;;8.90;5.53;;;;;;;19.99;91.65;94706.91;10290731;28;20101;-72
2021/09/04 17:52:12;;;;;;;12.00;5.93;;;;;;;19.74;93.34;94719.56;10289756;28;20289;-72
2021/09/04 17:57:12;;;;;;;22.33;5.83;;;;;;;19.53;93.59;94730.47;10288490;28;20033;-72
2021/09/04 18:02:13;;;;;;;9.47;5.63;;;;;;;19.28;95.46;94733.00;10288288;28;20065;-72
2021/09/04 18:07:13;;;;;;;11.93;5.80;;;;;;;19.15;95.78;94737.56;10289555;28;20057;-72
2021/09/04 18:12:13;;;;;;;11.60;6.70;;;;;;;18.95;97.13;94748.06;10289712;28;20061;-71
2021/09/04 18:17:14;;;;;;;16.87;7.33;;;;;;;18.89;98.52;94752.09;10289602;28;20290;-72
2021/09/04 18:22:14;;;;;;;11.03;5.67;;;;;;;18.64;98.79;94758.38;10289468;28;20630;-72
2021/09/04 18:27:15;;;;;;;17.40;7.13;;;;;;;18.56;100.00;94762.72;10288913;28;20270;-72
2021/09/04 18:32:15;;;;;;;13.45;6.03;;;;;;;18.58;100.00;94766.69;10289078;28;20356;-72
2021/09/04 18:37:15;;;;;;;24.50;6.90;;;;;;;18.51;100.00;94771.84;10288750;28;20519;-72
2021/09/04 18:42:16;;;;;;;12.83;6.43;;;;;;;18.67;100.00;94774.88;10288341;28;20277;-72
2021/09/04 18:47:17;;;;;;;12.20;7.45;;;;;;;18.69;100.00;94779.97;10286757;28;20092;-72
2021/09/04 18:52:17;;;;;;;12.43;6.90;;;;;;;18.76;100.00;94785.72;10287431;28;20027;-72
2021/09/04 18:57:17;;;;;;;11.67;7.17;;;;;;;18.73;100.00;94781.72;10287577;28;20026;-72
2021/09/04 19:02:18;;;;;;;15.43;7.53;;;;;;;18.75;100.00;94781.41;10286341;28;20030;-72
2021/09/04 19:07:18;;;;;;;11.43;5.80;;;;;;;18.62;98.43;94785.91;10287744;28;20043;-72
2021/09/04 19:12:23;;;;;;;10.47;6.70;;;;;;;18.50;98.01;94791.22;10287491;28;20038;-72
2021/09/04 19:17:24;;;;;;;10.35;6.18;;;;;;;18.47;98.54;94794.59;10286611;28;20023;-72
2021/09/04 19:22:24;;;;;;;9.50;6.43;;;;;;;18.43;99.12;94802.56;10287311;28;20605;-72
2021/09/04 19:27:25;;;;;;;9.65;5.75;;;;;;;18.25;100.00;94790.91;10286508;28;20106;-72
2021/09/04 19:32:25;;;;;;;10.63;4.95;;;;;;;18.13;100.00;94797.00;10286774;28;20173;-72
2021/09/04 19:37:26;;;;;;;11.30;5.65;;;;;;;18.00;100.00;94796.03;10286641;28;20483;-72
2021/09/04 19:42:28;;;;;;;7.13;4.78;;;;;;;17.93;100.00;94796.50;10286402;28;20034;-72
2021/09/04 19:47:29;;;;;;;8.27;5.63;;;;;;;17.94;100.00;94810.88;10285003;28;20023;-72
2021/09/04 19:52:29;;;;;;;8.15;4.82;;;;;;;17.92;100.00;94805.78;10286311;28;20026;-72
2021/09/04 19:57:30;;;;;;;14.50;5.70;;;;;;;17.92;100.00;94794.88;10285876;28;20033;-72
2021/09/04 20:02:30;;;;;;;12.40;5.27;;;;;;;17.96;99.66;94802.41;10285644;28;20027;-71
2021/09/04 20:07:30;;;;;;;6.97;4.47;;;;;;;18.06;97.01;94799.41;10284263;28;20290;-71
2021/09/04 20:12:31;;;;;;;10.43;5.23;;;;;;;18.15;92.95;94804.81;10285796;28;20800;-71
2021/09/04 20:17:31;;;;;;;11.20;5.93;;;;;;;18.21;92.41;94807.06;10285371;28;20034;-71
2021/09/04 20:22:34;;;;;;;9.55;5.72;;;;;;;18.17;93.29;94816.19;10285469;28;20282;-71
2021/09/04 20:27:34;;;;;;;8.40;5.32;;;;;;;18.16;95.62;94811.88;10291126;28;20098;-71
2021/09/04 20:32:34;;;;;;;8.83;4.63;;;;;;;18.13;92.22;94818.75;10293342;28;20049;-71
2021/09/04 20:43:10;;;;;;;11.65;8.20;;;;;;;18.03;89.99;94827.19;10243655;28;20278;-71
2021/09/04 20:48:13;;;;;;;6.87;4.40;;;;;;;18.01;89.39;94824.00;10292781;28;20029;-71
2021/09/04 20:53:14;;;;;;;7.20;5.03;;;;;;;17.96;90.32;94826.88;10290979;28;20038;-71
2021/09/04 20:58:14;;;;;;;7.17;4.23;;;;;;;17.93;90.08;94823.69;10292518;28;20381;-71
2021/09/04 21:03:14;;;;;;;8.60;5.57;;;;;;;17.88;96.41;94831.97;10292229;28;20278;-71
2021/09/04 21:08:15;;;;;;;8.03;4.77;;;;;;;17.87;98.24;94833.06;10291846;28;20038;-71
2021/09/04 21:13:15;;;;;;;6.18;4.72;;;;;;;17.66;93.13;94832.88;10292036;28;20289;-71
2021/09/04 21:18:16;;;;;;;7.20;5.23;;;;;;;17.59;93.82;94833.31;10291583;28;20066;-71
2021/09/04 21:23:16;;;;;;;7.30;6.13;;;;;;;17.49;95.02;94835.53;10291560;28;20097;-71
2021/09/04 21:28:16;;;;;;;7.65;5.03;;;;;;;17.39;96.16;94844.78;10291310;28;20023;-71
2021/09/04 21:33:17;;;;;;;7.40;5.10;;;;;;;17.23;96.95;94838.94;10289286;28;20114;-71
2021/09/04 21:38:17;;;;;;;8.13;4.78;;;;;;;17.06;98.62;94835.03;10288908;28;20026;-71
2021/09/04 21:43:17;;;;;;;7.83;4.60;;;;;;;16.96;99.77;94848.09;10289419;28;20022;-71
2021/09/04 21:48:18;;;;;;;8.40;4.82;;;;;;;16.80;100.00;94853.06;10290554;28;20102;-71
2021/09/04 21:53:19;;;;;;;5.55;4.30;;;;;;;16.66;100.00;94853.13;10288405;28;20039;-71
2021/09/04 21:58:19;;;;;;;8.52;4.90;;;;;;;16.47;100.00;94856.03;10288591;28;20031;-71
2021/09/04 22:03:19;;;;;;;10.50;5.18;;;;;;;16.20;100.00;94861.25;10288756;28;20031;-71
2021/09/04 22:08:20;;;;;;;7.47;4.50;;;;;;;16.01;100.00;94855.94;10289510;28;20039;-71
2021/09/04 22:13:20;;;;;;;11.10;4.60;;;;;;;15.83;100.00;94854.97;10289436;28;20035;-71
2021/09/04 22:18:21;;;;;;;8.65;5.30;;;;;;;15.71;100.00;94843.81;10289485;28;20294;-71
2021/09/04 22:23:21;;;;;;;6.33;5.23;;;;;;;15.75;100.00;94849.44;10289087;28;20035;-71
2021/09/04 22:28:21;;;;;;;7.63;5.00;;;;;;;15.64;100.00;94848.84;10289088;28;20270;-71
2021/09/04 22:33:27;;;;;;;7.47;4.70;;;;;;;15.54;100.00;94852.56;10287461;28;20391;-71
2021/09/04 22:38:27;;;;;;;10.32;5.13;;;;;;;15.61;100.00;94844.03;10288584;28;20300;-71
2021/09/04 22:43:28;;;;;;;5.83;4.77;;;;;;;15.61;100.00;94841.31;10288214;28;20505;-71
2021/09/04 22:48:28;;;;;;;6.63;5.03;;;;;;;15.57;100.00;94843.03;10288111;28;20722;-72
2021/09/04 22:53:29;;;;;;;6.33;5.17;;;;;;;15.44;100.00;94842.72;10288199;28;20278;-72
2021/09/04 22:58:29;;;;;;;7.72;4.60;;;;;;;15.41;100.00;94837.94;10286269;28;20281;-72
2021/09/04 23:03:29;;;;;;;6.72;5.40;;;;;;;15.29;100.00;94830.28;10287111;28;20101;-72
2021/09/04 23:08:30;;;;;;;6.43;4.27;;;;;;;15.24;100.00;94822.28;10286443;28;20047;-72
2021/09/04 23:13:31;;;;;;;7.60;5.37;;;;;;;15.02;100.00;94822.97;10286355;28;20118;-72